Time;durP1;ratioP1;P1;durP2;ratioP2;P2;SDS_P1;SDS_P2;PMS_P1;PMS_P2;Temp;Humidity;BMP_temperature;BMP_pressure;BME280_temperature;BME280_humidity;BME280_pressure;Samples;Min_cycle;Max_cycle;Signal;HPM_P1;HPM_P2
2022/10/12 00:00:35;;;;;;;4.10;1.20;;;5.40;99.90;;;;;;5041810;28;20033;-64
2022/10/12 00:03:01;;;;;;;4.47;1.30;;;5.40;99.90;;;;;;5049573;28;20385;-63
2022/10/12 00:05:27;;;;;;;10.85;1.52;;;5.40;99.90;;;;;;5047501;28;20063;-64
2022/10/12 00:07:52;;;;;;;5.93;1.73;;;5.40;99.90;;;;;;5068318;28;20037;-63
2022/10/12 00:10:18;;;;;;;6.95;1.38;;;5.40;99.90;;;;;;5052945;28;20040;-64
2022/10/12 00:12:44;;;;;;;8.85;1.75;;;5.50;99.90;;;;;;5048803;28;20499;-63
2022/10/12 00:15:10;;;;;;;5.78;1.40;;;5.60;99.90;;;;;;5063598;28;20143;-63
2022/10/12 00:17:36;;;;;;;6.65;2.03;;;5.60;99.90;;;;;;5044551;28;20197;-63
2022/10/12 00:20:03;;;;;;;6.47;1.45;;;5.60;99.90;;;;;;5055078;28;20120;-63
2022/10/12 00:22:28;;;;;;;5.75;1.60;;;5.60;99.90;;;;;;5069776;28;20041;-63
2022/10/12 00:24:54;;;;;;;5.20;1.85;;;5.70;99.90;;;;;;5053155;28;20499;-63
2022/10/12 00:27:20;;;;;;;3.83;2.00;;;5.70;99.90;;;;;;5048926;28;20041;-63
2022/10/12 00:29:45;;;;;;;7.97;2.00;;;5.60;99.90;;;;;;5054357;28;20127;-63
2022/10/12 00:32:11;;;;;;;5.35;1.70;;;5.60;99.90;;;;;;5060253;28;20395;-63
2022/10/12 00:34:36;;;;;;;3.53;1.63;;;5.60;99.90;;;;;;5048736;28;20170;-63
2022/10/12 00:37:02;;;;;;;6.22;1.70;;;5.60;99.90;;;;;;5060332;28;20140;-63
2022/10/12 00:39:28;;;;;;;4.75;1.83;;;5.60;99.90;;;;;;5058987;28;20037;-63
2022/10/12 00:41:53;;;;;;;4.57;1.65;;;5.60;99.90;;;;;;5049496;28;20120;-63
2022/10/12 00:44:43;;;;;;;4.55;1.50;;;5.50;99.90;;;;;;5049751;28;20115;-63
2022/10/12 00:47:20;;;;;;;7.05;2.10;;;5.50;99.90;;;;;;5046026;28;20049;-63
2022/10/12 00:49:54;;;;;;;5.57;1.58;;;5.50;99.90;;;;;;5048762;28;20090;-63
2022/10/12 00:52:25;;;;;;;5.88;1.83;;;5.50;99.90;;;;;;5052002;28;20353;-63
2022/10/12 00:54:53;;;;;;;9.35;1.67;;;5.50;99.90;;;;;;5053187;28;20394;-64
2022/10/12 00:57:19;;;;;;;3.75;1.70;;;5.50;99.90;;;;;;5050476;28;20041;-64
2022/10/12 00:59:50;;;;;;;8.57;1.90;;;5.50;99.90;;;;;;5059462;28;20130;-63
2022/10/12 01:02:18;;;;;;;7.72;2.25;;;5.50;99.90;;;;;;5060255;28;20102;-64
2022/10/12 01:04:44;;;;;;;4.68;1.65;;;5.50;99.90;;;;;;5053848;28;20460;-63
2022/10/12 01:07:09;;;;;;;5.22;1.60;;;5.60;99.90;;;;;;5054898;28;20632;-63
2022/10/12 01:09:35;;;;;;;5.13;2.58;;;5.60;99.90;;;;;;5050164;28;20119;-63
2022/10/12 01:12:03;;;;;;;3.78;1.42;;;5.50;99.90;;;;;;5051187;28;20036;-63
2022/10/12 01:14:29;;;;;;;5.72;1.90;;;5.40;99.90;;;;;;5067593;28;20048;-63
2022/10/12 01:17:05;;;;;;;4.75;1.80;;;5.40;99.90;;;;;;5064586;28;20043;-63
2022/10/12 01:19:50;;;;;;;6.70;1.90;;;5.30;99.90;;;;;;5058640;28;20041;-64
2022/10/12 01:22:18;;;;;;;6.57;1.80;;;5.30;99.90;;;;;;5046146;28;20504;-63
2022/10/12 01:25:03;;;;;;;6.72;1.90;;;5.30;99.90;;;;;;5053873;28;20033;-64
2022/10/12 01:27:47;;;;;;;8.02;1.98;;;5.30;99.90;;;;;;5048340;28;20412;-63
2022/10/12 01:30:24;;;;;;;4.53;1.70;;;5.30;99.90;;;;;;5056729;28;20041;-63
2022/10/12 01:33:12;;;;;;;4.32;1.70;;;5.30;99.90;;;;;;5053078;28;20049;-63
2022/10/12 01:36:02;;;;;;;6.90;2.55;;;5.20;99.90;;;;;;5051756;28;20075;-63
2022/10/12 01:38:40;;;;;;;5.50;1.60;;;5.20;99.90;;;;;;5044304;28;20045;-63
2022/10/12 01:41:23;;;;;;;5.55;1.92;;;5.20;99.90;;;;;;5048156;28;20053;-63
2022/10/12 01:43:51;;;;;;;6.45;2.17;;;5.20;99.90;;;;;;5052276;28;20563;-63
2022/10/12 01:46:19;;;;;;;4.25;1.70;;;5.20;99.90;;;;;;5051926;28;20467;-63
2022/10/12 01:48:48;;;;;;;6.30;2.10;;;5.20;99.90;;;;;;5049456;28;20072;-63
2022/10/12 01:51:39;;;;;;;3.17;1.65;;;5.20;99.90;;;;;;5053042;28;20060;-63
2022/10/12 01:54:25;;;;;;;4.72;1.98;;;5.20;99.90;;;;;;5031835;28;20045;-63
2022/10/12 01:57:42;;;;;;;4.75;1.83;;;5.20;99.90;;;;;;5047440;28;20072;-64
2022/10/12 02:00:12;;;;;;;9.50;2.75;;;5.30;99.90;;;;;;5034518;28;20110;-63
2022/10/12 02:02:49;;;;;;;9.75;2.30;;;5.30;99.90;;;;;;5048184;28;20069;-63
2022/10/12 02:05:30;;;;;;;5.47;2.08;;;5.30;99.90;;;;;;5047111;28;20084;-63
2022/10/12 02:08:05;;;;;;;;;;;5.20;99.90;;;;;;5062562;28;20485;-63
2022/10/12 02:10:47;;;;;;;9.20;2.13;;;5.20;99.90;;;;;;5051400;28;20316;-63
2022/10/12 02:13:17;;;;;;;6.10;2.05;;;5.10;99.90;;;;;;5050177;28;20381;-63
2022/10/12 02:15:43;;;;;;;7.07;2.30;;;5.20;99.90;;;;;;5046967;28;20098;-63
2022/10/12 02:18:13;;;;;;;6.03;2.00;;;5.20;99.90;;;;;;5049934;28;20385;-64
2022/10/12 02:20:39;;;;;;;6.10;1.97;;;5.30;99.90;;;;;;5060150;28;20048;-63
2022/10/12 02:23:06;;;;;;;5.30;1.85;;;5.20;99.90;;;;;;5050881;28;20299;-63
2022/10/12 02:25:33;;;;;;;4.00;1.42;;;5.10;99.90;;;;;;5056650;28;20155;-63
2022/10/12 02:28:06;;;;;;;5.60;1.95;;;5.10;99.90;;;;;;5047057;28;20040;-63
2022/10/12 02:30:41;;;;;;;7.72;2.45;;;5.10;99.90;;;;;;5061301;28;20056;-63
2022/10/12 02:33:37;;;;;;;4.88;2.58;;;5.10;99.90;;;;;;5049294;28;20057;-63
2022/10/12 02:36:24;;;;;;;7.43;2.85;;;5.10;99.90;;;;;;5066767;28;20147;-64
2022/10/12 02:39:09;;;;;;;7.78;2.92;;;5.10;99.90;;;;;;5056283;28;20032;-63
2022/10/12 02:41:44;;;;;;;3.25;2.38;;;5.10;99.90;;;;;;5056758;28;20032;-64
2022/10/12 02:44:12;;;;;;;4.35;2.78;;;5.20;99.90;;;;;;5049607;28;20128;-63
2022/10/12 02:46:40;;;;;;;8.45;4.53;;;5.20;99.90;;;;;;5050961;28;20110;-64
2022/10/12 02:49:07;;;;;;;9.75;6.07;;;5.20;99.90;;;;;;5052347;28;20143;-63
2022/10/12 02:51:34;;;;;;;15.60;11.82;;;5.30;99.90;;;;;;5048723;28;20479;-64
2022/10/12 02:54:00;;;;;;;20.10;14.05;;;5.20;99.90;;;;;;5056609;28;20106;-63
2022/10/12 02:56:26;;;;;;;8.80;5.50;;;5.30;99.90;;;;;;5055050;28;20048;-63
2022/10/12 02:58:52;;;;;;;5.25;3.78;;;5.30;99.90;;;;;;5047969;28;20045;-63
2022/10/12 03:01:17;;;;;;;7.78;3.92;;;5.30;99.90;;;;;;5048797;28;20033;-63
2022/10/12 03:03:44;;;;;;;5.95;3.72;;;5.30;99.90;;;;;;5042776;28;20095;-63
2022/10/12 03:06:10;;;;;;;6.95;3.97;;;5.30;99.90;;;;;;5035338;28;20082;-64
2022/10/12 03:08:36;;;;;;;7.70;3.70;;;5.40;99.90;;;;;;5053162;28;20052;-64
2022/10/12 03:11:03;;;;;;;9.15;3.90;;;5.40;99.90;;;;;;5050519;28;20460;-64
2022/10/12 03:13:28;;;;;;;9.70;3.72;;;5.50;99.90;;;;;;5055580;28;20037;-63
2022/10/12 03:16:00;;;;;;;4.32;3.78;;;5.50;99.90;;;;;;5054494;28;20033;-64
2022/10/12 03:18:26;;;;;;;6.28;3.60;;;5.40;99.90;;;;;;5057286;28;20045;-63
2022/10/12 03:20:51;;;;;;;7.55;4.68;;;5.40;99.90;;;;;;5051703;28;20037;-63
2022/10/12 03:23:17;;;;;;;7.35;4.40;;;5.40;99.90;;;;;;5051370;28;20051;-63
2022/10/12 03:25:43;;;;;;;9.05;4.80;;;5.40;99.90;;;;;;5065769;28;20037;-64
2022/10/12 03:28:08;;;;;;;10.48;4.47;;;5.40;99.90;;;;;;5063389;28;20330;-63
2022/10/12 03:30:34;;;;;;;7.80;4.97;;;5.30;99.90;;;;;;5063344;28;20475;-64
2022/10/12 03:32:59;;;;;;;9.65;4.63;;;5.30;99.90;;;;;;5048669;28;20076;-63
2022/10/12 03:35:25;;;;;;;12.05;5.20;;;5.30;99.90;;;;;;5060602;28;20036;-63
2022/10/12 03:37:50;;;;;;;11.52;5.20;;;5.20;99.90;;;;;;5050868;28;20045;-63
2022/10/12 03:40:16;;;;;;;10.85;4.90;;;5.20;99.90;;;;;;5053430;28;20098;-63
2022/10/12 03:42:41;;;;;;;11.98;5.65;;;5.20;99.90;;;;;;5045775;28;20056;-63
2022/10/12 03:45:08;;;;;;;11.98;5.43;;;5.20;99.90;;;;;;5048974;28;20037;-63
2022/10/12 03:47:33;;;;;;;8.13;4.60;;;5.30;99.90;;;;;;5059748;28;20330;-63
2022/10/12 03:49:59;;;;;;;8.18;4.53;;;5.20;99.90;;;;;;5058622;28;20045;-64
2022/10/12 03:52:26;;;;;;;11.85;5.32;;;5.20;99.90;;;;;;5058018;28;20033;-63
2022/10/12 03:54:51;;;;;;;9.52;4.45;;;5.20;99.90;;;;;;5053764;28;20036;-63
2022/10/12 03:57:17;;;;;;;8.23;4.20;;;5.10;99.90;;;;;;5056865;28;20556;-63
2022/10/12 03:59:42;;;;;;;6.72;3.97;;;5.10;99.90;;;;;;5049513;28;20131;-63
2022/10/12 04:02:08;;;;;;;10.68;4.18;;;5.10;99.90;;;;;;5048922;28;20044;-64
2022/10/12 04:04:34;;;;;;;5.88;3.78;;;5.10;99.90;;;;;;5064449;28;20056;-64
2022/10/12 04:06:59;;;;;;;5.90;3.83;;;5.10;99.90;;;;;;5050314;28;20886;-64
2022/10/12 04:09:25;;;;;;;6.60;3.30;;;5.10;99.90;;;;;;5058445;28;20402;-64
2022/10/12 04:11:50;;;;;;;5.88;3.55;;;5.10;99.90;;;;;;5054044;28;20679;-64
2022/10/12 04:14:16;;;;;;;7.18;4.03;;;5.10;99.90;;;;;;5049922;28;20098;-63
2022/10/12 04:16:41;;;;;;;7.90;4.15;;;5.10;99.90;;;;;;5061236;28;22579;-64
2022/10/12 04:19:12;;;;;;;7.70;3.67;;;5.10;99.90;;;;;;5051916;28;20846;-64
2022/10/12 04:21:38;;;;;;;6.97;4.03;;;5.00;99.90;;;;;;5047057;28;20329;-63
2022/10/12 04:24:04;;;;;;;6.93;3.88;;;5.00;99.90;;;;;;5049483;28;20051;-63
2022/10/12 04:26:30;;;;;;;9.05;4.53;;;5.00;99.90;;;;;;5062297;28;20510;-64
2022/10/12 04:28:55;;;;;;;8.80;4.38;;;5.00;99.90;;;;;;5064414;28;20047;-64
2022/10/12 04:31:21;;;;;;;10.82;4.75;;;5.00;99.90;;;;;;5052917;28;20037;-63
2022/10/12 04:33:46;;;;;;;7.82;4.82;;;5.00;99.90;;;;;;5049799;28;20082;-64
2022/10/12 04:36:12;;;;;;;11.93;5.90;;;4.90;99.90;;;;;;5058221;28;20136;-64
2022/10/12 04:38:37;;;;;;;14.10;5.47;;;5.00;99.90;;;;;;5051095;28;20476;-64
2022/10/12 04:41:04;;;;;;;14.27;5.65;;;5.00;99.90;;;;;;5047606;28;20059;-63
2022/10/12 04:43:29;;;;;;;10.35;6.35;;;5.00;99.90;;;;;;5044291;28;20369;-64
2022/10/12 04:45:57;;;;;;;7.50;5.20;;;5.00;99.90;;;;;;5053405;28;20051;-64
2022/10/12 04:48:23;;;;;;;10.52;5.38;;;5.00;99.90;;;;;;5049268;28;20362;-64
2022/10/12 04:50:49;;;;;;;8.25;4.95;;;5.00;99.90;;;;;;5047850;28;20127;-64
2022/10/12 04:53:15;;;;;;;9.60;5.32;;;5.00;99.90;;;;;;5066692;28;20049;-63
2022/10/12 04:55:40;;;;;;;10.43;5.50;;;5.00;99.90;;;;;;5056093;28;20452;-64
2022/10/12 04:58:06;;;;;;;11.25;6.05;;;4.90;99.90;;;;;;5043879;28;20583;-64
2022/10/12 05:00:31;;;;;;;9.50;5.80;;;4.90;99.90;;;;;;5047475;28;20960;-64
2022/10/12 05:02:57;;;;;;;10.80;5.70;;;4.90;99.90;;;;;;5056629;28;20059;-63
2022/10/12 05:05:23;;;;;;;9.43;5.72;;;4.90;99.90;;;;;;5047963;28;20049;-63
2022/10/12 05:07:48;;;;;;;12.30;5.78;;;4.90;99.90;;;;;;5050069;28;20396;-63
2022/10/12 05:10:14;;;;;;;8.93;5.65;;;4.90;99.90;;;;;;5048594;28;20083;-64
2022/10/12 05:12:39;;;;;;;11.75;6.45;;;4.80;99.90;;;;;;5050792;28;20041;-64
2022/10/12 05:15:05;;;;;;;11.98;6.47;;;4.80;99.90;;;;;;5051519;28;20037;-64
2022/10/12 05:17:31;;;;;;;10.23;6.40;;;4.80;99.90;;;;;;5048600;28;20432;-63
2022/10/12 05:19:56;;;;;;;13.30;6.55;;;4.80;99.90;;;;;;5049297;28;20134;-64
2022/10/12 05:22:22;;;;;;;10.93;6.20;;;4.80;99.90;;;;;;5031868;28;20051;-63
2022/10/12 05:24:47;;;;;;;14.38;7.45;;;4.70;99.90;;;;;;5049016;28;20158;-64
2022/10/12 05:27:13;;;;;;;10.13;6.20;;;4.70;99.90;;;;;;5055153;28;20045;-64
2022/10/12 05:29:38;;;;;;;13.38;7.32;;;4.70;99.90;;;;;;5047861;28;20128;-64
2022/10/12 05:32:04;;;;;;;13.70;7.30;;;4.70;99.90;;;;;;5046254;28;20121;-64
2022/10/12 05:34:30;;;;;;;15.10;6.85;;;4.70;99.90;;;;;;5060481;28;20109;-64
2022/10/12 05:36:57;;;;;;;13.90;6.88;;;4.70;99.90;;;;;;5060166;28;20360;-63
2022/10/12 05:39:22;;;;;;;10.13;6.93;;;4.60;99.90;;;;;;5056020;28;20330;-63
2022/10/12 05:41:48;;;;;;;21.10;7.88;;;4.60;99.90;;;;;;5048116;28;20109;-64
2022/10/12 05:44:13;;;;;;;15.27;7.13;;;4.60;99.90;;;;;;5059848;28;20663;-64
2022/10/12 05:46:39;;;;;;;10.43;6.45;;;4.60;99.90;;;;;;5051646;28;20158;-64
2022/10/12 05:49:05;;;;;;;11.88;7.22;;;4.50;99.90;;;;;;5049511;28;20131;-65
2022/10/12 05:51:31;;;;;;;11.43;7.05;;;4.50;99.90;;;;;;5048654;28;20841;-63
2022/10/12 05:53:56;;;;;;;10.25;6.18;;;4.50;99.90;;;;;;5046408;28;20145;-64
2022/10/12 05:56:22;;;;;;;10.80;6.22;;;4.50;99.90;;;;;;5052498;28;20040;-64
2022/10/12 05:58:47;;;;;;;9.38;6.43;;;4.40;99.90;;;;;;5054066;28;20040;-64
2022/10/12 06:01:13;;;;;;;16.98;6.78;;;4.40;99.90;;;;;;5057395;28;20041;-64
2022/10/12 06:03:39;;;;;;;12.98;6.70;;;4.40;99.90;;;;;;5051123;28;20072;-64
2022/10/12 06:06:06;;;;;;;18.58;8.23;;;4.40;99.90;;;;;;5052306;28;20049;-64
2022/10/12 06:08:33;;;;;;;17.58;7.88;;;4.50;99.90;;;;;;5052481;28;20056;-64
2022/10/12 06:10:58;;;;;;;16.15;7.90;;;4.50;99.90;;;;;;5052022;28;20037;-64
2022/10/12 06:13:24;;;;;;;8.00;5.35;;;4.60;99.90;;;;;;5047415;28;20085;-64
2022/10/12 06:15:50;;;;;;;8.60;5.53;;;4.60;99.90;;;;;;5059581;28;20448;-64
2022/10/12 06:18:17;;;;;;;8.90;5.57;;;4.60;99.90;;;;;;5053144;28;20036;-64
2022/10/12 06:21:00;;;;;;;10.02;6.57;;;4.60;99.90;;;;;;5050754;28;20136;-64
2022/10/12 06:23:26;;;;;;;18.58;6.95;;;4.50;99.90;;;;;;5053007;28;20052;-64
2022/10/12 06:25:52;;;;;;;11.35;6.80;;;4.50;99.90;;;;;;5056525;28;20138;-64
2022/10/12 06:28:19;;;;;;;10.88;6.15;;;4.50;99.90;;;;;;5048164;28;20069;-64
2022/10/12 06:30:45;;;;;;;10.40;7.70;;;4.40;99.90;;;;;;5060427;28;20047;-64
2022/10/12 06:33:10;;;;;;;9.45;6.30;;;4.40;99.90;;;;;;5062843;28;20445;-64
2022/10/12 06:35:37;;;;;;;9.15;5.93;;;4.40;99.90;;;;;;5050698;28;20136;-64
2022/10/12 06:38:03;;;;;;;10.73;7.03;;;4.40;99.90;;;;;;5054823;28;20079;-64
2022/10/12 06:40:28;;;;;;;11.73;6.40;;;4.50;99.90;;;;;;5051038;28;20072;-64
2022/10/12 06:42:54;;;;;;;12.73;6.30;;;4.50;99.90;;;;;;5037624;28;20043;-64
2022/10/12 06:45:19;;;;;;;15.45;7.60;;;4.50;99.90;;;;;;5050334;28;20029;-64
2022/10/12 06:47:45;;;;;;;13.20;7.38;;;4.60;99.90;;;;;;5053250;28;20032;-64
2022/10/12 06:50:11;;;;;;;11.88;7.13;;;4.70;99.90;;;;;;5054910;28;20037;-64
2022/10/12 06:52:37;;;;;;;12.82;7.40;;;4.80;99.90;;;;;;5055396;28;20048;-64
2022/10/12 06:55:03;;;;;;;9.77;6.57;;;4.90;99.90;;;;;;5050543;28;20090;-65
2022/10/12 06:57:29;;;;;;;12.45;6.60;;;5.00;99.90;;;;;;5058711;28;20033;-64
2022/10/12 06:59:55;;;;;;;12.90;6.35;;;5.30;99.90;;;;;;5064935;28;20036;-64
2022/10/12 07:02:20;;;;;;;8.85;6.13;;;5.50;99.90;;;;;;5062053;28;20201;-64
2022/10/12 07:04:50;;;;;;;11.30;7.20;;;5.60;99.90;;;;;;5053226;28;20045;-65
2022/10/12 07:07:16;;;;;;;11.60;7.68;;;5.70;99.90;;;;;;5048738;28;20591;-64
2022/10/12 07:09:42;;;;;;;11.55;6.20;;;5.80;99.90;;;;;;5052683;28;20041;-64
2022/10/12 07:12:07;;;;;;;11.63;5.68;;;6.10;99.90;;;;;;5048966;28;20070;-64
2022/10/12 07:14:33;;;;;;;12.05;6.53;;;6.30;99.90;;;;;;5050435;28;20036;-64
2022/10/12 07:16:58;;;;;;;13.52;6.47;;;6.50;99.90;;;;;;5058952;28;20393;-65
2022/10/12 07:19:24;;;;;;;12.23;7.15;;;6.60;99.90;;;;;;5049188;28;20102;-64
2022/10/12 07:21:49;;;;;;;15.63;7.03;;;6.80;99.90;;;;;;5053253;28;20140;-64
2022/10/12 07:24:15;;;;;;;13.75;7.00;;;6.90;99.90;;;;;;5051627;28;20140;-64
2022/10/12 07:26:40;;;;;;;12.55;7.28;;;7.00;99.90;;;;;;5039084;28;20052;-64
2022/10/12 07:29:06;;;;;;;11.07;6.95;;;7.20;99.90;;;;;;5044869;28;20032;-65
2022/10/12 07:31:32;;;;;;;19.83;7.10;;;7.30;99.90;;;;;;5039281;28;20183;-63
2022/10/12 07:33:57;;;;;;;10.68;6.95;;;7.50;99.90;;;;;;5057635;28;20123;-64
2022/10/12 07:36:23;;;;;;;9.45;7.15;;;7.70;99.90;;;;;;5059326;28;20029;-64
2022/10/12 07:38:49;;;;;;;13.65;7.07;;;7.70;99.90;;;;;;5049013;28;20037;-64
2022/10/12 07:41:15;;;;;;;14.43;6.53;;;7.80;99.90;;;;;;5062368;28;20452;-64
2022/10/12 07:43:40;;;;;;;13.48;6.65;;;7.90;99.90;;;;;;5051404;28;20048;-64
2022/10/12 07:46:06;;;;;;;15.70;6.63;;;8.00;99.90;;;;;;5060039;28;20553;-64
2022/10/12 07:48:33;;;;;;;15.90;7.07;;;8.10;99.90;;;;;;5058691;28;20496;-64
2022/10/12 07:51:06;;;;;;;16.05;7.22;;;8.10;99.90;;;;;;5049595;28;20044;-65
2022/10/12 07:53:38;;;;;;;10.80;6.28;;;8.20;99.90;;;;;;5066758;28;20036;-64
2022/10/12 07:56:06;;;;;;;11.85;5.93;;;8.30;99.90;;;;;;5048526;28;20149;-64
2022/10/12 07:58:32;;;;;;;14.40;6.18;;;8.30;99.90;;;;;;5053550;28;20116;-64
2022/10/12 08:01:05;;;;;;;11.80;6.20;;;8.30;99.90;;;;;;5050129;28;20170;-64
2022/10/12 08:03:31;;;;;;;11.02;6.18;;;8.30;99.90;;;;;;5061430;28;20444;-64
2022/10/12 08:05:56;;;;;;;14.57;6.55;;;8.40;99.90;;;;;;5051121;28;20124;-64
2022/10/12 08:08:22;;;;;;;15.00;6.60;;;8.40;99.90;;;;;;5062148;28;20467;-64
2022/10/12 08:10:48;;;;;;;14.02;5.68;;;8.50;99.90;;;;;;5052166;28;20037;-64
2022/10/12 08:13:13;;;;;;;14.73;5.90;;;8.40;99.90;;;;;;5058822;28;20033;-64
2022/10/12 08:15:39;;;;;;;8.00;5.32;;;8.50;99.90;;;;;;5064560;28;20053;-64
2022/10/12 08:18:05;;;;;;;12.48;6.15;;;8.50;99.90;;;;;;5059687;28;20202;-64
2022/10/12 08:20:30;;;;;;;14.85;5.50;;;8.70;99.90;;;;;;5059636;28;20051;-64
2022/10/12 08:22:56;;;;;;;14.35;5.38;;;8.90;99.90;;;;;;5066134;28;20059;-64
2022/10/12 08:25:21;;;;;;;19.95;5.57;;;9.00;99.90;;;;;;5049631;28;20084;-64
2022/10/12 08:27:47;;;;;;;11.70;4.88;;;9.20;99.90;;;;;;5045412;28;20103;-64
2022/10/12 08:30:13;;;;;;;11.57;5.88;;;9.30;99.90;;;;;;5053386;28;21858;-64
2022/10/12 08:32:38;;;;;;;9.27;4.65;;;9.60;99.90;;;;;;5063289;28;20044;-64
2022/10/12 08:35:05;;;;;;;11.68;5.93;;;9.80;99.90;;;;;;5054292;28;20510;-64
2022/10/12 08:37:30;;;;;;;16.02;6.43;;;10.10;99.90;;;;;;5047506;28;20037;-64
2022/10/12 08:39:56;;;;;;;14.00;5.35;;;10.30;99.90;;;;;;5047911;28;20051;-64
2022/10/12 08:42:34;;;;;;;15.45;5.63;;;10.30;99.90;;;;;;5047294;28;20049;-64
2022/10/12 08:45:47;;;;;;;9.90;5.65;;;10.40;99.90;;;;;;5066222;28;20123;-64
2022/10/12 08:48:22;;;;;;;10.82;5.95;;;10.50;99.90;;;;;;5031819;28;20080;-64
2022/10/12 08:50:54;;;;;;;11.63;5.70;;;10.60;99.90;;;;;;5058780;28;20039;-64
2022/10/12 08:53:43;;;;;;;16.33;6.18;;;10.70;99.90;;;;;;5069371;28;20538;-63
2022/10/12 08:56:09;;;;;;;11.93;5.78;;;10.80;99.90;;;;;;5034144;28;20393;-63
2022/10/12 08:58:37;;;;;;;16.63;6.03;;;10.90;99.90;;;;;;5050103;28;20040;-63
2022/10/12 09:01:03;;;;;;;12.57;5.35;;;10.90;99.90;;;;;;5067978;28;20051;-63
2022/10/12 09:03:46;;;;;;;13.50;6.20;;;10.90;99.90;;;;;;5068963;28;20082;-64
2022/10/12 09:06:22;;;;;;;14.32;6.75;;;11.00;99.90;;;;;;5059058;28;20063;-63
2022/10/12 09:08:59;;;;;;;16.40;7.22;;;11.00;99.90;;;;;;5049175;28;20468;-64
2022/10/12 09:11:43;;;;;;;13.93;7.90;;;11.00;99.90;;;;;;5052525;28;20388;-63
2022/10/12 09:14:19;;;;;;;14.63;7.20;;;11.10;99.90;;;;;;5049514;28;20036;-64
2022/10/12 09:16:47;;;;;;;13.23;6.63;;;11.00;99.90;;;;;;5055490;28;20087;-63
2022/10/12 09:19:36;;;;;;;20.58;7.40;;;11.00;99.90;;;;;;5048245;28;20048;-63
2022/10/12 09:22:04;;;;;;;17.88;7.47;;;11.10;99.90;;;;;;5049133;28;20554;-63
2022/10/12 09:24:34;;;;;;;15.63;7.85;;;11.00;99.90;;;;;;5064021;28;20041;-64
2022/10/12 09:27:14;;;;;;;20.15;8.23;;;11.00;99.90;;;;;;5052081;28;20743;-63
2022/10/12 09:29:40;;;;;;;15.48;7.63;;;11.10;99.90;;;;;;5050008;28;20094;-64
2022/10/12 09:32:25;;;;;;;14.95;7.65;;;11.00;99.90;;;;;;5048190;28;20048;-65
2022/10/12 09:34:50;;;;;;;17.55;7.88;;;11.00;99.90;;;;;;5048485;28;20049;-65
2022/10/12 09:37:23;;;;;;;16.73;6.50;;;11.00;99.90;;;;;;5066678;28;20047;-63
2022/10/12 09:39:49;;;;;;;15.48;7.50;;;11.10;99.90;;;;;;5050633;28;20116;-63
2022/10/12 09:42:15;;;;;;;17.08;7.40;;;11.20;99.90;;;;;;5044880;28;20127;-64
2022/10/12 09:44:47;;;;;;;15.95;7.07;;;11.20;99.90;;;;;;5049731;28;20052;-64
2022/10/12 09:47:30;;;;;;;12.50;6.95;;;11.40;99.90;;;;;;5048288;28;20044;-64
2022/10/12 09:50:01;;;;;;;13.02;5.78;;;11.50;99.90;;;;;;5057149;28;20145;-64
2022/10/12 09:52:35;;;;;;;23.35;7.30;;;11.70;99.90;;;;;;5048879;28;20036;-64
2022/10/12 09:55:10;;;;;;;11.45;5.50;;;11.70;99.90;;;;;;5046861;28;20365;-65
2022/10/12 09:57:39;;;;;;;16.27;5.75;;;11.80;99.90;;;;;;5048805;28;20045;-65
2022/10/12 10:00:31;;;;;;;11.20;5.35;;;12.00;99.90;;;;;;5056659;28;20054;-65
2022/10/12 10:02:58;;;;;;;11.32;5.13;;;12.10;99.90;;;;;;5050852;28;20072;-65
2022/10/12 10:05:30;;;;;;;18.38;5.25;;;12.20;99.90;;;;;;5067655;28;20084;-65
2022/10/12 10:08:13;;;;;;;11.77;4.70;;;12.30;99.90;;;;;;5051235;28;20458;-65
2022/10/12 10:10:49;;;;;;;12.48;4.72;;;12.30;99.90;;;;;;5062321;28;20028;-65
2022/10/12 10:13:15;;;;;;;12.02;3.25;;;12.60;99.90;;;;;;5051748;28;20036;-65
2022/10/12 10:15:44;;;;;;;12.57;3.80;;;12.70;99.90;;;;;;5067455;28;20040;-64
2022/10/12 10:18:27;;;;;;;13.82;3.30;;;12.70;99.90;;;;;;5059550;28;20080;-65
2022/10/12 10:20:55;;;;;;;10.57;2.97;;;12.80;99.90;;;;;;5061546;28;20044;-64
2022/10/12 10:23:25;;;;;;;12.95;2.95;;;12.80;99.90;;;;;;5065177;28;20385;-63
2022/10/12 10:25:55;;;;;;;8.35;2.25;;;12.80;99.90;;;;;;5055340;28;20076;-64
2022/10/12 10:28:23;;;;;;;13.38;2.80;;;12.80;99.90;;;;;;5048058;28;20440;-64
2022/10/12 10:31:02;;;;;;;7.70;2.72;;;12.90;99.90;;;;;;5047976;28;20403;-65
2022/10/12 10:34:07;;;;;;;11.10;3.05;;;12.90;99.90;;;;;;5054928;28;20541;-65
2022/10/12 10:36:53;;;;;;;12.60;3.08;;;13.00;99.90;;;;;;5049564;28;20433;-63
2022/10/12 10:39:46;;;;;;;16.05;2.55;;;13.00;99.90;;;;;;5049104;28;20579;-65
2022/10/12 10:42:33;;;;;;;7.50;2.53;;;13.10;99.90;;;;;;5063879;28;20032;-65
2022/10/12 10:45:48;;;;;;;11.23;2.95;;;13.20;99.90;;;;;;5062689;28;20059;-64
2022/10/12 10:48:27;;;;;;;10.50;2.83;;;13.20;99.90;;;;;;5049969;28;20106;-64
2022/10/12 10:50:59;;;;;;;7.22;2.85;;;13.30;99.90;;;;;;5057405;28;20140;-64
2022/10/12 10:53:29;;;;;;;10.93;3.10;;;13.30;99.90;;;;;;5058962;28;20443;-64
2022/10/12 10:56:07;;;;;;;13.98;3.30;;;13.30;99.90;;;;;;5077245;28;20067;-65
2022/10/12 10:58:37;;;;;;;7.32;3.10;;;13.40;99.90;;;;;;5058228;28;20446;-62
2022/10/12 11:01:21;;;;;;;8.77;2.63;;;13.40;99.90;;;;;;5065885;28;20413;-63
2022/10/12 11:04:13;;;;;;;12.75;2.88;;;13.50;99.90;;;;;;5052308;28;20571;-62
2022/10/12 11:06:46;;;;;;;9.48;2.03;;;13.50;99.90;;;;;;5054780;28;20060;-64
2022/10/12 11:09:33;;;;;;;10.55;2.55;;;13.50;99.90;;;;;;5050157;28;20045;-65
2022/10/12 11:12:06;;;;;;;6.55;2.15;;;13.60;99.90;;;;;;5053679;28;20047;-64
2022/10/12 11:14:43;;;;;;;7.18;2.22;;;13.70;99.90;;;;;;5056713;28;20041;-63
2022/10/12 11:17:24;;;;;;;6.65;2.70;;;13.70;99.90;;;;;;5055341;28;20060;-64
2022/10/12 11:20:00;;;;;;;7.65;2.17;;;13.60;99.90;;;;;;5051290;28;20052;-64
2022/10/12 11:22:49;;;;;;;9.65;2.35;;;13.70;99.90;;;;;;5053999;28;20101;-64
2022/10/12 11:25:22;;;;;;;9.82;2.25;;;13.80;98.50;;;;;;5066354;28;20477;-64
2022/10/12 11:27:49;;;;;;;10.85;2.28;;;13.70;99.90;;;;;;5056656;28;20108;-62
2022/10/12 11:30:18;;;;;;;5.60;2.22;;;13.70;99.90;;;;;;5060855;28;20044;-64
2022/10/12 11:32:53;;;;;;;12.30;3.13;;;13.70;99.70;;;;;;5061453;28;20041;-64
2022/10/12 11:35:33;;;;;;;7.57;2.25;;;13.80;99.90;;;;;;5052954;28;20437;-64
2022/10/12 11:38:07;;;;;;;8.45;2.33;;;13.90;99.90;;;;;;5052662;28;20190;-64
2022/10/12 11:40:47;;;;;;;9.85;2.33;;;13.80;99.90;;;;;;5052405;28;20059;-64
2022/10/12 11:43:20;;;;;;;6.78;2.22;;;13.90;99.90;;;;;;5049326;28;20405;-63
2022/10/12 11:45:49;;;;;;;10.00;2.55;;;13.90;99.90;;;;;;5054569;28;20060;-64
2022/10/12 11:48:26;;;;;;;11.85;2.55;;;13.90;99.90;;;;;;5050846;28;20143;-63
2022/10/12 11:50:53;;;;;;;6.65;2.13;;;13.90;99.90;;;;;;5049765;28;20052;-64
2022/10/12 11:53:39;;;;;;;11.07;2.38;;;14.00;99.90;;;;;;5049508;28;20048;-62
2022/10/12 11:56:10;;;;;;;7.38;2.50;;;13.90;98.40;;;;;;5051528;28;20052;-64
2022/10/12 11:58:42;;;;;;;6.95;2.30;;;13.90;99.70;;;;;;5047006;28;20044;-62
2022/10/12 12:01:15;;;;;;;9.32;2.22;;;14.00;98.60;;;;;;5051846;28;20528;-64
2022/10/12 12:03:43;;;;;;;7.72;2.63;;;14.00;98.20;;;;;;5051542;28;20053;-63
2022/10/12 12:06:41;;;;;;;9.60;2.30;;;13.90;98.50;;;;;;5049996;28;20053;-64
2022/10/12 12:09:30;;;;;;;12.30;2.20;;;14.00;96.30;;;;;;5044069;28;20044;-64
2022/10/12 12:12:12;;;;;;;9.80;2.40;;;14.10;98.60;;;;;;5043253;28;20044;-65
2022/10/12 12:14:53;;;;;;;6.53;1.85;;;14.20;96.70;;;;;;5053581;28;20086;-63
2022/10/12 12:17:18;;;;;;;;;;;14.20;96.50;;;;;;5050791;28;20051;-64
2022/10/12 12:19:47;;;;;;;10.13;2.47;;;14.30;94.60;;;;;;5049900;28;19916;-64
2022/10/12 12:22:47;;;;;;;7.07;2.20;;;14.30;97.30;;;;;;5058200;28;20037;-65
2022/10/12 12:25:15;;;;;;;;;;;14.40;95.10;;;;;;5050956;28;20041;-64
2022/10/12 12:27:48;;;;;;;6.85;1.92;;;14.50;95.40;;;;;;5048953;28;19920;-64
2022/10/12 12:30:16;;;;;;;7.45;2.08;;;14.50;93.70;;;;;;5048772;28;20045;-65
2022/10/12 12:32:52;;;;;;;11.50;2.53;;;14.50;94.40;;;;;;5047407;28;20040;-64
2022/10/12 12:35:20;;;;;;;7.78;2.10;;;14.60;94.20;;;;;;5052289;28;20037;-65
2022/10/12 12:37:47;;;;;;;12.45;3.03;;;14.60;96.00;;;;;;5048019;28;20037;-64
2022/10/12 12:40:22;;;;;;;6.85;2.10;;;14.60;95.90;;;;;;5048959;28;20037;-64
2022/10/12 12:42:48;;;;;;;6.28;1.98;;;14.80;93.90;;;;;;5054373;28;20129;-63
2022/10/12 12:45:34;;;;;;;10.93;2.72;;;14.70;95.40;;;;;;5050574;28;20544;-64
2022/10/12 12:47:59;;;;;;;7.63;1.58;;;14.70;94.00;;;;;;5044287;28;20048;-63
2022/10/12 12:50:34;;;;;;;5.60;1.90;;;14.70;92.40;;;;;;5047500;28;20085;-63
2022/10/12 12:53:13;;;;;;;5.38;1.90;;;14.80;93.00;;;;;;5049590;28;20530;-64
2022/10/12 12:55:58;;;;;;;8.07;1.90;;;15.00;92.90;;;;;;5051460;28;20044;-64
2022/10/12 12:58:24;;;;;;;5.30;2.03;;;15.10;92.90;;;;;;5047226;28;20044;-65
2022/10/12 13:01:04;;;;;;;9.10;2.05;;;14.90;93.70;;;;;;5048958;28;20203;-62
2022/10/12 13:03:47;;;;;;;;;;;14.70;93.00;;;;;;5049368;28;20151;-64
2022/10/12 13:06:25;;;;;;;10.35;2.33;;;14.60;93.40;;;;;;5049204;28;20037;-63
2022/10/12 13:09:14;;;;;;;5.55;1.80;;;14.60;94.20;;;;;;5049725;28;20131;-63